Weather at Club Makokola Airport

Public forecast

Using degrees Celsius for public forecast. Weather courtesy of forecast.io.

Closest aviation weather report (METAR) to Club Makokola Airport

Report is more than 6 hours old.

Closest report is Lichinga Airport, 62.5 nm (115.7 km) N.

2022/11/14 15:00 (retrieved 2 years ago)

FQLC 141500Z 23007KT 9999 FEW022 SCT/// 27/15 Q1018

Closest aviation forecast (TAF) to Club Makokola Airport

Forecast is more than 12 hours old.

Closest forecast is Lichinga Airport, 62.5 nm (115.7 km) N.

2023/02/22 18:00 (retrieved 1 year ago)

TAF FQLC 221600Z 2218/2318 12008KT 9999 SCT018 FEW025CB TX27/2313Z TN14/2303Z PROB30 TEMPO 2219/2303 4000 -TSRA FEW025CB PROB30 TEMPO 2303/2305 0300 FG SCT010 BECMG 2306/2308 12010KT PROB30 TEMPO 2309/2313 5000 -TSRA FEW020CB BECMG 2312/2314 09012KT